Contact Us:
Email: info@sawbill.com
Phone: (218)663-7150
Fax: (218)663-7980
Mail: 4620 Sawbill Trail
Box 2129
Tofte, MN 55615


Powered by
Movable Type 3.15
 
Sawbill Weather History Archives: July 2007
Current Sawbill Weather History | « June 2007 | August 2007 »


Date

High
Temperature

Low
Temperature

Barometric
Pressure

Relative
Humidity 7AM

9 AM
Temperature

Moisture

Snow

7/31/07 94 69 30.13 70% 69 0
7/30/07 92 66 30.05 81% 69 0
7/29/06 90 62 29.93 77% 68 0
7/28/07 83 55 30.17 85% 62 0
7/27/06 85 58 30.03 89% 61 0
7/26/06 87 62 30.06 91% 64 1.63"
7/25/06 94 65 30.11 87% 70 0
7/24/06 94 64 29.96 91% 68 0
7/23/06 93 76 29.87 86% 64 0
7/22/06 75 60 29.88 85% 69 0
7/21/06 81 52 29.96 77% 59 0
7/20/07 78 47 30.17 74% 54 0
7/19/07 75 49 30.23 78% 54 0
7/18/07 89 54 30.07 73% 56 0
7/16/07 83 50 30.11 79% 50 0
7/15/07 73 49 30.02 85% 53 0
7/14/07 72 52 29.86 86% 55 .09"
7/13/07 64 52 29.54 80% 53 .5"
7/12/07 65 50 30.12 84% 48 .14"
7/11/07 70 52 29.96 77% 56 .1"
7/10/07 67 52 n/a 88% 52 1.13"
7/9/07 86 55 n/a 73% 59 0
7/8/07 86 59 29.54 77% 62 0
7/7/07 92 59 29.59 78% 70 0
7/6/07 87 59 29.89 80% 59 0
7/5/07 80 53 30.11 88% 59 .07"
7/4/07 86 60 29.95 84% 61 0
7/3/07 78 59 29.87 88% 60 0
7/2/07 62 51 29.98 86% 60 .18"
7/1/07 72 49 30.22 82% 51 0
 


Home I Trip Planning I Rentals and Outfitting I Reservations I Campgrounds I Sawbill Store I Sawbill News I Contact

© 1997 - 2017, Sawbill Canoe Outfitters, Inc. I Privacy Policy